createdAt,value
2023-04-13T00:00:38.588Z,67.57
2023-04-13T00:01:38.674Z,67.70
2023-04-13T00:02:38.875Z,67.33
2023-04-13T00:03:38.893Z,67.57
2023-04-13T00:04:38.865Z,68.32
2023-04-13T00:05:38.930Z,67.62
2023-04-13T00:06:38.987Z,67.05
2023-04-13T00:07:38.993Z,66.98
2023-04-13T00:08:39.046Z,66.76
2023-04-13T00:09:39.118Z,66.36
2023-04-13T00:10:39.135Z,65.98
2023-04-13T00:11:39.190Z,65.76
2023-04-13T00:12:39.188Z,65.64
2023-04-13T00:13:39.255Z,66.72
2023-04-13T00:14:39.279Z,66.04
2023-04-13T00:15:39.312Z,65.87
2023-04-13T00:16:39.414Z,65.68
2023-04-13T00:17:39.481Z,65.76
2023-04-13T00:18:39.482Z,65.71
2023-04-13T00:19:39.599Z,66.04
2023-04-13T00:20:39.651Z,65.81
2023-04-13T00:21:39.697Z,65.69
2023-04-13T00:22:39.735Z,65.59
2023-04-13T00:23:39.782Z,65.55
2023-04-13T00:24:39.867Z,65.67
2023-04-13T00:25:39.920Z,65.77
2023-04-13T00:26:39.994Z,65.97
2023-04-13T00:27:40.105Z,65.91
2023-04-13T00:28:40.159Z,65.75
2023-04-13T00:29:40.309Z,65.77
2023-04-13T00:30:40.418Z,65.58
2023-04-13T00:31:40.423Z,65.50
2023-04-13T00:32:40.497Z,65.35
2023-04-13T00:33:40.549Z,65.23
2023-04-13T00:34:40.627Z,64.94
2023-04-13T00:35:40.685Z,64.73
2023-04-13T00:36:40.767Z,65.10
2023-04-13T00:37:40.824Z,65.39
2023-04-13T00:38:42.643Z,65.46
2023-04-13T00:39:40.914Z,65.54
2023-04-13T00:40:40.946Z,65.49
2023-04-13T00:41:40.965Z,65.41
2023-04-13T00:42:40.962Z,65.43
2023-04-13T00:43:40.993Z,65.52
2023-04-13T00:44:40.995Z,65.65
2023-04-13T00:45:41.060Z,65.81
2023-04-13T00:46:41.098Z,65.95
2023-04-13T00:47:41.086Z,65.89
2023-04-13T00:48:41.079Z,66.02
2023-04-13T00:49:41.111Z,66.95
2023-04-13T00:50:41.122Z,66.85
2023-04-13T00:51:41.167Z,67.49
2023-04-13T00:52:41.242Z,67.38
2023-04-13T00:53:41.233Z,67.86
2023-04-13T00:54:41.297Z,68.10
2023-04-13T00:55:41.287Z,69.14
2023-04-13T00:56:41.318Z,70.36
2023-04-13T00:57:41.354Z,68.97
2023-04-13T00:58:41.391Z,70.21
2023-04-13T00:59:41.491Z,69.44
2023-04-13T01:00:41.466Z,69.48
2023-04-13T01:01:41.601Z,69.48
2023-04-13T01:02:41.779Z,69.54
2023-04-13T01:03:41.637Z,69.94
2023-04-13T01:04:41.700Z,69.95
2023-04-13T01:05:41.653Z,69.72
2023-04-13T01:06:41.684Z,69.61
2023-04-13T01:07:41.732Z,69.45
2023-04-13T01:08:41.751Z,69.51
2023-04-13T01:09:41.753Z,69.49
2023-04-13T01:10:41.766Z,69.41
2023-04-13T01:11:41.785Z,69.18
2023-04-13T01:12:41.821Z,68.83
2023-04-13T01:13:41.869Z,68.69
2023-04-13T01:14:41.866Z,68.81
2023-04-13T01:15:41.928Z,69.53
2023-04-13T01:16:41.915Z,68.77
2023-04-13T01:17:41.937Z,68.42
2023-04-13T01:18:41.954Z,68.35
2023-04-13T01:19:41.982Z,68.39
2023-04-13T01:20:41.085Z,68.39
2023-04-13T01:21:42.078Z,68.31
2023-04-13T01:22:42.114Z,68.43
2023-04-13T01:23:42.151Z,68.79
2023-04-13T01:24:42.184Z,69.25
2023-04-13T01:25:42.275Z,69.32
2023-04-13T01:26:42.348Z,70.10
2023-04-13T01:27:42.431Z,69.85
2023-04-13T01:28:42.495Z,69.31
2023-04-13T01:29:42.585Z,68.76
2023-04-13T01:30:42.626Z,67.92
2023-04-13T01:31:42.750Z,65.98
2023-04-13T01:32:42.730Z,64.61
2023-04-13T01:33:42.810Z,66.53
2023-04-13T01:34:42.843Z,67.07
2023-04-13T01:35:42.917Z,69.50
2023-04-13T01:36:42.993Z,69.90
2023-04-13T01:37:43.084Z,69.86
2023-04-13T01:38:43.289Z,70.11
2023-04-13T01:39:43.287Z,70.00
2023-04-13T01:40:43.395Z,69.95
2023-04-13T01:41:43.497Z,69.45
2023-04-13T01:42:43.615Z,70.03
2023-04-13T01:43:43.726Z,70.00
2023-04-13T01:44:43.818Z,69.97
2023-04-13T01:45:43.929Z,69.83
2023-04-13T01:46:44.049Z,69.77
2023-04-13T01:47:44.112Z,69.65
2023-04-13T01:48:44.271Z,70.76
2023-04-13T01:49:44.327Z,71.15
2023-04-13T01:50:44.476Z,71.78
2023-04-13T01:51:44.567Z,72.48
2023-04-13T01:52:44.700Z,72.60
2023-04-13T01:53:44.793Z,72.17
2023-04-13T01:54:44.871Z,72.84
2023-04-13T01:55:45.019Z,71.94
2023-04-13T01:56:45.074Z,72.53
2023-04-13T01:57:45.165Z,72.41
2023-04-13T01:58:45.323Z,71.83
2023-04-13T01:59:45.342Z,71.36
2023-04-13T02:00:45.466Z,70.13
2023-04-13T02:01:45.546Z,65.60
2023-04-13T02:02:46.004Z,65.58
2023-04-13T02:03:45.762Z,70.98
2023-04-13T02:04:45.716Z,67.72
2023-04-13T02:05:45.793Z,63.60
2023-04-13T02:06:45.881Z,62.60
2023-04-13T02:07:45.964Z,61.88
2023-04-13T02:08:46.024Z,61.98
2023-04-13T02:09:46.115Z,63.67
2023-04-13T02:10:46.188Z,64.43
2023-04-13T02:11:46.261Z,60.70
2023-04-13T02:12:46.340Z,60.19
2023-04-13T02:13:46.428Z,59.96
2023-04-13T02:14:46.558Z,59.48
2023-04-13T02:15:46.598Z,61.27
2023-04-13T02:16:46.810Z,61.64
2023-04-13T02:17:46.807Z,62.52
2023-04-13T02:18:46.905Z,65.44
2023-04-13T02:19:47.008Z,66.60
2023-04-13T02:20:47.137Z,67.44
2023-04-13T02:21:47.309Z,65.89
2023-04-13T02:22:47.398Z,65.93
2023-04-13T02:23:47.545Z,65.05
2023-04-13T02:24:47.695Z,63.51
2023-04-13T02:25:48.353Z,64.01
2023-04-13T02:26:47.920Z,63.15
2023-04-13T02:27:48.028Z,63.03
2023-04-13T02:28:48.166Z,63.39
2023-04-13T02:29:48.314Z,64.01
2023-04-13T02:30:48.389Z,61.99
2023-04-13T02:31:48.562Z,62.42
2023-04-13T02:32:48.612Z,61.52
2023-04-13T02:33:48.734Z,60.31
2023-04-13T02:34:48.808Z,59.52
2023-04-13T02:35:49.005Z,59.90
2023-04-13T02:36:49.003Z,60.77
2023-04-13T02:37:49.066Z,61.65
2023-04-13T02:38:49.164Z,63.43
2023-04-13T02:39:49.277Z,61.12
2023-04-13T02:40:49.414Z,62.91
2023-04-13T02:41:49.445Z,62.83
2023-04-13T02:42:49.518Z,66.40
2023-04-13T02:43:49.669Z,68.29
2023-04-13T02:44:49.773Z,68.17
2023-04-13T02:45:49.967Z,66.14
2023-04-13T02:46:50.066Z,67.79
2023-04-13T02:47:50.237Z,67.65
2023-04-13T02:48:50.364Z,65.19
2023-04-13T02:49:50.557Z,64.57
2023-04-13T02:50:50.685Z,65.23
2023-04-13T02:51:50.812Z,63.75
2023-04-13T02:52:50.940Z,64.57
2023-04-13T02:53:51.050Z,63.64
2023-04-13T02:54:51.128Z,63.19
2023-04-13T02:55:51.210Z,62.94
2023-04-13T02:56:51.288Z,60.75
2023-04-13T02:57:51.358Z,60.45
2023-04-13T02:58:51.447Z,61.48
2023-04-13T02:59:51.530Z,62.22
2023-04-13T03:00:51.652Z,63.64
2023-04-13T03:01:51.860Z,64.47
2023-04-13T03:02:51.964Z,62.21
2023-04-13T03:03:51.963Z,61.69
2023-04-13T03:04:52.105Z,61.24
2023-04-13T03:05:52.256Z,60.86
2023-04-13T03:06:52.302Z,59.61
2023-04-13T03:07:52.405Z,59.40
2023-04-13T03:08:53.478Z,59.93
2023-04-13T03:09:52.626Z,60.34
2023-04-13T03:10:52.712Z,60.40
2023-04-13T03:11:52.786Z,60.97
2023-04-13T03:12:52.882Z,64.28
2023-04-13T03:13:53.007Z,62.31
2023-04-13T03:14:53.094Z,61.13
2023-04-13T03:15:53.212Z,59.42
2023-04-13T03:16:53.355Z,61.01
2023-04-13T03:17:53.467Z,61.23
2023-04-13T03:18:53.514Z,62.57
2023-04-13T03:19:53.612Z,61.57
2023-04-13T03:20:53.734Z,60.64
2023-04-13T03:21:53.889Z,60.70
2023-04-13T03:22:53.961Z,60.73
2023-04-13T03:23:54.062Z,63.24
2023-04-13T03:24:54.179Z,63.98
2023-04-13T03:25:54.296Z,63.79
2023-04-13T03:26:54.401Z,61.67
2023-04-13T03:27:54.538Z,61.87
2023-04-13T03:28:54.656Z,61.23
2023-04-13T03:29:54.758Z,63.23
2023-04-13T03:30:54.924Z,63.89
2023-04-13T03:31:55.037Z,64.12
2023-04-13T03:32:55.204Z,63.80
2023-04-13T03:33:55.256Z,63.87
2023-04-13T03:34:55.375Z,65.88
2023-04-13T03:35:55.556Z,65.79
2023-04-13T03:36:55.682Z,64.67
2023-04-13T03:37:55.751Z,64.64
2023-04-13T03:38:55.882Z,64.53
2023-04-13T03:39:56.012Z,64.96
2023-04-13T03:40:56.167Z,65.00
2023-04-13T03:41:56.282Z,65.62
2023-04-13T03:42:56.396Z,64.43
2023-04-13T03:43:56.911Z,63.83
2023-04-13T03:44:56.590Z,64.34
2023-04-13T03:45:56.769Z,63.21
2023-04-13T03:46:56.785Z,63.11
2023-04-13T03:47:56.942Z,64.45
2023-04-13T03:48:57.016Z,63.64
2023-04-13T03:49:57.115Z,64.11
2023-04-13T03:50:57.275Z,64.87
2023-04-13T03:51:57.311Z,62.57
2023-04-13T03:52:57.456Z,63.88
2023-04-13T03:53:57.761Z,62.61
2023-04-13T03:54:57.718Z,62.09
2023-04-13T03:55:57.727Z,62.59
2023-04-13T03:56:57.821Z,62.53
2023-04-13T03:57:57.944Z,63.01
2023-04-13T03:58:58.052Z,61.92
2023-04-13T03:59:58.128Z,61.94
2023-04-13T04:00:58.254Z,61.38
2023-04-13T04:01:58.410Z,62.23
2023-04-13T04:02:58.553Z,62.35
2023-04-13T04:03:58.936Z,65.11
2023-04-13T04:04:58.802Z,65.68
2023-04-13T04:05:58.881Z,66.62
2023-04-13T04:06:59.004Z,65.31
2023-04-13T04:07:59.144Z,65.05
2023-04-13T04:08:59.263Z,63.60
2023-04-13T04:09:59.328Z,63.50
2023-04-13T04:10:59.409Z,63.91
2023-04-13T04:11:59.483Z,64.16
2023-04-13T04:12:59.595Z,63.17
2023-04-13T04:13:59.859Z,65.45
2023-04-13T04:14:59.835Z,66.07
2023-04-13T04:15:59.997Z,65.61
2023-04-13T04:17:00.051Z,63.30
2023-04-13T04:18:00.276Z,63.85
2023-04-13T04:19:00.241Z,63.65
2023-04-13T04:20:00.353Z,64.74
2023-04-13T04:21:00.472Z,66.88
2023-04-13T04:22:00.576Z,67.41
2023-04-13T04:23:00.690Z,65.61
2023-04-13T04:24:00.869Z,65.54
2023-04-13T04:25:01.022Z,65.92
2023-04-13T04:26:01.023Z,65.92
2023-04-13T04:27:01.122Z,66.28
2023-04-13T04:28:01.224Z,65.42
2023-04-13T04:29:01.312Z,64.90
2023-04-13T04:30:01.393Z,63.86
2023-04-13T04:31:01.485Z,63.67
2023-04-13T04:32:01.651Z,63.13
2023-04-13T04:33:01.673Z,63.75
2023-04-13T04:34:01.705Z,64.16
2023-04-13T04:35:01.774Z,64.06
2023-04-13T04:36:01.995Z,64.39
2023-04-13T04:37:03.478Z,65.12
2023-04-13T04:38:01.976Z,65.09
2023-04-13T04:39:02.220Z,65.98
2023-04-13T04:40:02.105Z,65.79
2023-04-13T04:41:02.276Z,64.54
2023-04-13T04:42:02.250Z,64.16
2023-04-13T04:43:02.278Z,64.36
2023-04-13T04:44:02.371Z,65.23
2023-04-13T04:45:02.428Z,65.10
2023-04-13T04:46:02.583Z,65.33
2023-04-13T04:47:02.584Z,65.30
2023-04-13T04:48:02.780Z,65.60
2023-04-13T04:49:02.763Z,65.92
2023-04-13T04:50:02.849Z,65.53
2023-04-13T04:51:02.933Z,65.34
2023-04-13T04:52:03.010Z,66.04
2023-04-13T04:53:03.071Z,65.98
2023-04-13T04:54:03.137Z,65.56
2023-04-13T04:55:03.263Z,66.61
2023-04-13T04:56:03.345Z,66.63
2023-04-13T04:57:03.465Z,65.83
2023-04-13T04:58:03.554Z,65.52
2023-04-13T04:59:03.666Z,65.18
2023-04-13T05:00:03.741Z,65.21
2023-04-13T05:01:03.918Z,65.55
2023-04-13T05:02:04.034Z,65.84
2023-04-13T05:03:04.105Z,66.15
2023-04-13T05:04:04.179Z,66.27
2023-04-13T05:05:04.288Z,66.60
2023-04-13T05:06:04.404Z,66.44
2023-04-13T05:07:04.506Z,66.83
2023-04-13T05:08:04.606Z,66.59
2023-04-13T05:09:04.737Z,66.16
2023-04-13T05:10:04.828Z,66.46
2023-04-13T05:11:04.943Z,67.11
2023-04-13T05:12:05.099Z,66.98
2023-04-13T05:13:05.202Z,66.53
2023-04-13T05:14:05.335Z,67.13
2023-04-13T05:15:05.443Z,67.82
2023-04-13T05:16:05.580Z,68.26
2023-04-13T05:17:05.639Z,67.97
2023-04-13T05:18:05.790Z,68.49
2023-04-13T05:19:05.823Z,69.34
2023-04-13T05:20:05.973Z,68.18
2023-04-13T05:21:06.097Z,68.30
2023-04-13T05:22:06.200Z,69.16
2023-04-13T05:23:06.293Z,68.85
2023-04-13T05:24:06.384Z,69.71
2023-04-13T05:25:06.869Z,69.50
2023-04-13T05:26:07.716Z,68.97
2023-04-13T05:27:15.262Z,67.82
2023-04-13T05:28:10.643Z,67.81
2023-04-13T05:29:08.915Z,68.87
2023-04-13T05:30:07.317Z,68.66
2023-04-13T05:31:07.497Z,67.76
2023-04-13T05:32:07.594Z,67.64
2023-04-13T05:33:07.193Z,67.34
2023-04-13T05:34:08.723Z,68.01
2023-04-13T05:35:09.080Z,67.84
2023-04-13T05:36:08.216Z,68.48
2023-04-13T05:37:08.269Z,68.86
2023-04-13T05:38:09.073Z,68.35
2023-04-13T05:39:12.170Z,68.89
2023-04-13T05:40:08.157Z,67.54
2023-04-13T05:41:08.738Z,67.80
2023-04-13T05:42:08.304Z,67.99
2023-04-13T05:43:08.412Z,68.55
2023-04-13T05:44:09.128Z,67.47
2023-04-13T05:45:08.570Z,67.72
2023-04-13T05:46:08.766Z,67.45
2023-04-13T05:47:08.742Z,67.01
2023-04-13T05:48:09.126Z,66.59
2023-04-13T05:49:09.212Z,66.99
2023-04-13T05:50:11.183Z,67.60
2023-04-13T05:51:09.460Z,67.02
2023-04-13T05:52:11.099Z,66.83
2023-04-13T05:53:09.413Z,66.38
2023-04-13T05:54:09.403Z,66.05
2023-04-13T05:55:09.590Z,65.80
2023-04-13T05:56:09.542Z,65.96
2023-04-13T05:57:11.207Z,66.83
2023-04-13T05:58:09.877Z,67.09
2023-04-13T05:59:09.899Z,67.60
2023-04-13T06:00:10.552Z,67.06
2023-04-13T06:01:17.453Z,67.16
2023-04-13T06:02:10.275Z,66.18
2023-04-13T06:03:10.449Z,66.01
2023-04-13T06:04:27.104Z,66.13
2023-04-13T06:05:10.337Z,66.21
2023-04-13T06:06:17.843Z,65.67
2023-04-13T06:08:10.972Z,65.99
2023-04-13T06:09:18.257Z,67.34
2023-04-13T06:10:10.644Z,68.47
2023-04-13T06:11:19.347Z,68.81
2023-04-13T06:12:11.104Z,67.58
2023-04-13T06:13:10.864Z,68.15
2023-04-13T06:14:14.162Z,67.93
2023-04-13T06:15:11.076Z,67.19
2023-04-13T06:16:13.278Z,66.52
2023-04-13T06:17:12.335Z,66.17
2023-04-13T06:18:11.373Z,66.48
2023-04-13T06:19:11.197Z,65.43
2023-04-13T06:20:11.328Z,65.45
2023-04-13T06:21:10.362Z,65.70
2023-04-13T06:22:27.430Z,66.21
2023-04-13T06:23:11.481Z,66.21
2023-04-13T06:24:13.327Z,65.94
2023-04-13T06:25:11.599Z,65.64
2023-04-13T06:26:11.704Z,65.79
2023-04-13T06:27:12.534Z,65.99
2023-04-13T06:28:12.683Z,65.71
2023-04-13T06:29:10.801Z,66.40
2023-04-13T06:30:11.941Z,66.61
2023-04-13T06:31:13.819Z,66.44
2023-04-13T06:32:12.234Z,65.35
2023-04-13T06:33:12.308Z,64.86
2023-04-13T06:34:13.735Z,64.01
2023-04-13T06:35:12.921Z,64.69
2023-04-13T06:36:13.264Z,65.65
2023-04-13T06:37:12.572Z,65.81
2023-04-13T06:38:12.700Z,66.35
2023-04-13T06:39:12.789Z,67.25
2023-04-13T06:40:13.213Z,66.84
2023-04-13T06:41:12.988Z,67.29
2023-04-13T06:42:13.079Z,67.69
2023-04-13T06:43:26.249Z,66.38
2023-04-13T06:44:15.077Z,64.89
2023-04-13T06:45:13.341Z,64.61
2023-04-13T06:46:14.629Z,65.66
2023-04-13T06:47:13.751Z,66.86
2023-04-13T06:48:13.989Z,66.56
2023-04-13T06:49:14.243Z,66.58
2023-04-13T06:50:14.366Z,66.13
2023-04-13T06:51:13.919Z,66.13
2023-04-13T06:52:17.200Z,65.92
2023-04-13T06:53:14.238Z,66.19
2023-04-13T06:54:14.455Z,65.48
2023-04-13T06:55:14.220Z,65.92
2023-04-13T06:56:14.511Z,64.70
2023-04-13T06:57:14.749Z,65.09
2023-04-13T06:58:22.133Z,65.76
2023-04-13T06:59:14.557Z,66.14
2023-04-13T07:00:28.189Z,66.80
2023-04-13T07:01:14.758Z,66.96
2023-04-13T07:02:17.142Z,66.38
2023-04-13T07:03:15.994Z,65.59
2023-04-13T07:04:15.973Z,66.22
2023-04-13T07:05:15.218Z,66.63
2023-04-13T07:06:15.100Z,66.03
2023-04-13T07:07:15.266Z,66.00
2023-04-13T07:08:15.279Z,65.65
2023-04-13T07:09:15.407Z,66.03
2023-04-13T07:10:15.514Z,65.39
2023-04-13T07:11:15.695Z,65.61
2023-04-13T07:12:19.461Z,65.51
2023-04-13T07:13:16.080Z,65.66
2023-04-13T07:14:15.987Z,66.56
2023-04-13T07:15:17.232Z,66.46
2023-04-13T07:16:16.310Z,66.77
2023-04-13T07:17:16.360Z,67.43
2023-04-13T07:18:17.373Z,66.48
2023-04-13T07:19:16.842Z,66.26
2023-04-13T07:20:16.839Z,65.85
2023-04-13T07:21:16.833Z,66.55
2023-04-13T07:22:17.927Z,65.44
2023-04-13T07:23:16.891Z,65.39
2023-04-13T07:24:16.993Z,63.99
2023-04-13T07:25:17.225Z,63.83
2023-04-13T07:26:17.663Z,64.49
2023-04-13T07:27:22.434Z,63.71
2023-04-13T07:28:19.005Z,63.22
2023-04-13T07:29:17.908Z,63.89
2023-04-13T07:30:18.271Z,63.60
2023-04-13T07:31:19.625Z,63.13
2023-04-13T07:32:20.873Z,62.53
2023-04-13T07:33:17.943Z,62.00
2023-04-13T07:34:17.099Z,61.15
2023-04-13T07:35:19.087Z,62.42
2023-04-13T07:36:20.185Z,60.67
2023-04-13T07:37:27.240Z,60.68
2023-04-13T07:38:20.172Z,60.51
2023-04-13T07:39:21.210Z,59.74
2023-04-13T07:40:18.516Z,60.09
2023-04-13T07:41:24.909Z,59.37
2023-04-13T07:42:20.140Z,60.84
2023-04-13T07:43:20.769Z,60.78
2023-04-13T07:44:23.565Z,59.96
2023-04-13T07:45:20.924Z,59.37
2023-04-13T07:46:27.365Z,58.33
2023-04-13T07:47:25.978Z,58.98
2023-04-13T07:48:20.008Z,60.09
2023-04-13T07:49:19.005Z,60.80
2023-04-13T07:50:19.538Z,60.73
2023-04-13T07:51:24.386Z,62.63
2023-04-13T07:52:21.930Z,63.55
2023-04-13T07:53:19.489Z,64.48
2023-04-13T07:54:21.726Z,64.27
2023-04-13T07:55:19.994Z,64.28
2023-04-13T07:56:20.680Z,64.41
2023-04-13T07:57:27.975Z,65.13
2023-04-13T07:58:20.287Z,66.89
2023-04-13T07:59:22.510Z,65.98
2023-04-13T08:00:20.749Z,66.83
2023-04-13T08:01:21.524Z,66.92
2023-04-13T08:02:21.392Z,65.61
2023-04-13T08:03:20.438Z,65.18
2023-04-13T08:04:21.357Z,65.30
2023-04-13T08:05:22.403Z,65.42
2023-04-13T08:06:22.014Z,64.97
2023-04-13T08:07:21.622Z,64.18
2023-04-13T08:08:22.797Z,65.50
2023-04-13T08:09:22.336Z,65.73
2023-04-13T08:10:22.014Z,65.25
2023-04-13T08:11:22.807Z,64.39
2023-04-13T08:12:22.934Z,63.70
2023-04-13T08:13:26.566Z,62.86
2023-04-13T08:14:22.522Z,63.06
2023-04-13T08:15:22.571Z,63.17
2023-04-13T08:16:25.778Z,63.78
2023-04-13T08:17:24.017Z,62.94
2023-04-13T08:18:24.723Z,62.31
2023-04-13T08:19:23.717Z,63.28
2023-04-13T08:20:25.229Z,63.26
2023-04-13T08:21:23.019Z,63.09
2023-04-13T08:22:30.743Z,64.04
2023-04-13T08:23:24.380Z,63.59
2023-04-13T08:24:24.454Z,63.55
2023-04-13T08:25:31.319Z,62.67
2023-04-13T08:26:27.502Z,62.12
2023-04-13T08:27:23.884Z,63.60
2023-04-13T08:28:24.485Z,61.69
2023-04-13T08:29:26.412Z,64.13
2023-04-13T08:30:26.743Z,64.28
2023-04-13T08:31:24.705Z,63.11
2023-04-13T08:32:24.912Z,61.86
2023-04-13T08:33:24.479Z,62.85
2023-04-13T08:34:24.647Z,61.72
2023-04-13T08:35:24.731Z,60.92
2023-04-13T08:36:24.897Z,59.67
2023-04-13T08:37:25.351Z,60.08
2023-04-13T08:38:25.490Z,59.98
2023-04-13T08:39:25.004Z,59.33
2023-04-13T08:40:26.898Z,60.54
2023-04-13T08:41:25.194Z,59.75
2023-04-13T08:42:27.041Z,59.11
2023-04-13T08:43:25.359Z,60.13
2023-04-13T08:44:25.451Z,61.59
2023-04-13T08:45:25.551Z,60.76
2023-04-13T08:46:25.811Z,59.54
2023-04-13T08:47:26.577Z,61.32
2023-04-13T08:48:25.946Z,60.64
2023-04-13T08:49:25.891Z,60.12
2023-04-13T08:50:25.955Z,61.57
2023-04-13T08:51:26.030Z,61.48
2023-04-13T08:52:26.857Z,62.36
2023-04-13T08:53:26.246Z,61.24
2023-04-13T08:54:27.770Z,61.04
2023-04-13T08:55:26.415Z,60.81
2023-04-13T08:56:38.416Z,58.96
2023-04-13T08:57:27.011Z,59.82
2023-04-13T08:58:27.265Z,61.15
2023-04-13T08:59:26.754Z,59.65
2023-04-13T09:00:27.177Z,58.69
2023-04-13T09:01:31.588Z,59.51
2023-04-13T09:02:29.283Z,59.00
2023-04-13T09:03:27.502Z,58.71
2023-04-13T09:04:29.502Z,58.71
2023-04-13T09:05:29.145Z,57.79
2023-04-13T09:06:30.274Z,58.21
2023-04-13T09:07:32.350Z,57.35
2023-04-13T09:08:30.747Z,56.66
2023-04-13T09:09:32.872Z,56.94
2023-04-13T09:10:32.336Z,57.53
2023-04-13T09:11:29.925Z,56.59
2023-04-13T09:12:27.738Z,56.99
2023-04-13T09:13:27.714Z,57.20
2023-04-13T09:14:27.773Z,57.56
2023-04-13T09:15:31.612Z,56.08
2023-04-13T09:16:27.919Z,55.55
2023-04-13T09:17:29.417Z,56.48
2023-04-13T09:18:27.008Z,55.33
2023-04-13T09:19:28.125Z,55.03
2023-04-13T09:20:28.246Z,55.66
2023-04-13T09:21:28.173Z,55.32
2023-04-13T09:22:28.242Z,55.24
2023-04-13T09:23:28.797Z,56.47
2023-04-13T09:24:28.313Z,54.80
2023-04-13T09:25:28.381Z,54.38
2023-04-13T09:26:28.406Z,55.11
2023-04-13T09:27:28.765Z,53.74
2023-04-13T09:28:28.518Z,54.59
2023-04-13T09:29:28.564Z,54.12
2023-04-13T09:30:28.751Z,53.53
2023-04-13T09:31:29.087Z,53.96
2023-04-13T09:32:29.299Z,53.23
2023-04-13T09:33:31.824Z,53.34
2023-04-13T09:34:29.841Z,52.28
2023-04-13T09:35:31.151Z,51.67
2023-04-13T09:36:52.777Z,51.61
2023-04-13T09:37:59.501Z,49.00
2023-04-13T09:38:48.573Z,50.47
2023-04-13T09:39:49.025Z,49.33
2023-04-13T09:40:49.572Z,49.30
2023-04-13T09:41:49.535Z,48.60
2023-04-13T09:42:49.124Z,49.19
2023-04-13T09:43:50.989Z,48.63
2023-04-13T09:44:51.553Z,49.33
2023-04-13T09:45:48.685Z,47.85
2023-04-13T09:46:48.940Z,47.25
2023-04-13T09:47:49.039Z,47.00
2023-04-13T09:48:50.254Z,49.49
2023-04-13T09:49:48.609Z,50.12
2023-04-13T09:50:48.583Z,47.74
2023-04-13T09:51:48.723Z,50.39
2023-04-13T09:52:49.578Z,50.55
2023-04-13T09:53:48.506Z,48.82
2023-04-13T09:54:48.920Z,47.77
2023-04-13T09:55:48.697Z,50.04
2023-04-13T09:56:50.460Z,48.58
2023-04-13T09:57:48.705Z,48.46
2023-04-13T09:58:49.099Z,49.17
2023-04-13T09:59:48.769Z,48.66
2023-04-13T10:00:48.750Z,49.17
2023-04-13T10:01:48.851Z,48.19
2023-04-13T10:02:49.200Z,47.48
2023-04-13T10:03:49.120Z,47.90
2023-04-13T10:04:48.906Z,47.30
2023-04-13T10:06:48.343Z,47.26
2023-04-13T10:07:49.680Z,48.49
2023-04-13T10:08:48.885Z,47.24
2023-04-13T10:09:48.926Z,47.96
2023-04-13T10:10:49.633Z,48.18
2023-04-13T10:11:49.527Z,49.25
2023-04-13T10:12:48.960Z,48.46
2023-04-13T10:13:49.088Z,47.93
2023-04-13T10:14:50.642Z,48.59
2023-04-13T10:15:51.981Z,47.60
2023-04-13T10:16:49.109Z,46.87
2023-04-13T10:17:49.141Z,46.85
2023-04-13T10:18:49.073Z,46.12
2023-04-13T10:19:49.085Z,49.15
2023-04-13T10:20:49.586Z,49.64
2023-04-13T10:21:50.337Z,48.25
2023-04-13T10:22:49.584Z,48.14
2023-04-13T10:23:49.065Z,48.06
2023-04-13T10:24:49.091Z,48.14
2023-04-13T10:25:50.201Z,47.22
2023-04-13T10:26:49.509Z,47.67
2023-04-13T10:27:50.166Z,49.01
2023-04-13T10:28:49.582Z,48.59
2023-04-13T10:29:50.090Z,49.04
2023-04-13T10:30:49.723Z,49.18
2023-04-13T10:31:49.853Z,49.27
2023-04-13T10:32:49.869Z,49.76
2023-04-13T10:33:50.078Z,49.97
2023-04-13T10:34:50.100Z,50.55
2023-04-13T10:35:49.981Z,50.05
2023-04-13T10:36:50.031Z,50.22
2023-04-13T10:37:50.576Z,50.37
2023-04-13T10:38:50.152Z,50.42
2023-04-13T10:39:50.232Z,50.27
2023-04-13T10:40:50.273Z,51.31
2023-04-13T10:41:51.348Z,51.27
2023-04-13T10:42:53.105Z,50.36
2023-04-13T10:43:50.626Z,49.96
2023-04-13T10:44:50.594Z,50.22
2023-04-13T10:45:50.553Z,50.57
2023-04-13T10:46:50.626Z,51.60
2023-04-13T10:47:51.174Z,51.57
2023-04-13T10:48:50.681Z,51.39
2023-04-13T10:49:51.078Z,51.92
2023-04-13T10:50:50.776Z,51.79
2023-04-13T10:51:51.816Z,51.50
2023-04-13T10:52:50.876Z,52.84
2023-04-13T10:53:51.077Z,53.30
2023-04-13T10:54:50.966Z,53.63
2023-04-13T10:55:50.997Z,54.12
2023-04-13T10:56:51.027Z,53.04
2023-04-13T10:57:51.072Z,51.95
2023-04-13T10:58:51.079Z,52.27
2023-04-13T10:59:57.031Z,53.39
2023-04-13T11:00:51.092Z,52.58
2023-04-13T11:01:51.156Z,53.45
2023-04-13T11:02:51.684Z,50.79
2023-04-13T11:04:03.725Z,51.14
2023-04-13T11:04:51.276Z,51.77
2023-04-13T11:05:51.589Z,52.24
2023-04-13T11:06:51.199Z,53.41
2023-04-13T11:07:55.082Z,53.24
2023-04-13T11:08:51.266Z,52.86
2023-04-13T11:09:51.338Z,53.52
2023-04-13T11:10:52.001Z,53.52
2023-04-13T11:11:52.045Z,53.85
2023-04-13T11:12:51.624Z,54.15
2023-04-13T11:13:51.536Z,53.11
2023-04-13T11:14:51.554Z,52.35
2023-04-13T11:15:51.598Z,53.11
2023-04-13T11:16:58.381Z,52.47
2023-04-13T11:17:51.636Z,52.02
2023-04-13T11:18:51.639Z,52.37
2023-04-13T11:19:51.664Z,52.20
2023-04-13T11:20:51.681Z,52.32
2023-04-13T11:21:52.111Z,51.11
2023-04-13T11:22:52.083Z,52.43
2023-04-13T11:23:51.791Z,52.74
2023-04-13T11:24:52.084Z,53.30
2023-04-13T11:25:51.869Z,53.10
2023-04-13T11:26:51.876Z,48.64
2023-04-13T11:27:52.084Z,48.32
2023-04-13T11:28:52.010Z,49.51
2023-04-13T11:29:52.026Z,48.47
2023-04-13T11:30:52.043Z,47.89
2023-04-13T11:31:52.149Z,47.84
2023-04-13T11:32:52.133Z,49.26
2023-04-13T11:33:52.162Z,48.34
2023-04-13T11:34:52.584Z,48.55
2023-04-13T11:35:52.240Z,48.02
2023-04-13T11:36:52.288Z,49.28
2023-04-13T11:37:52.617Z,49.07
2023-04-13T11:38:52.377Z,48.57
2023-04-13T11:39:52.415Z,48.69
2023-04-13T11:40:58.861Z,49.62
2023-04-13T11:41:52.503Z,51.00
2023-04-13T11:42:52.544Z,52.39
2023-04-13T11:43:52.586Z,53.29
2023-04-13T11:44:52.838Z,53.32
2023-04-13T11:45:52.827Z,53.70
2023-04-13T11:46:53.212Z,53.38
2023-04-13T11:47:52.977Z,55.80
2023-04-13T11:48:53.001Z,56.74
2023-04-13T11:49:53.086Z,56.08
2023-04-13T11:50:53.159Z,56.61
2023-04-13T11:51:53.588Z,58.99
2023-04-13T11:52:53.303Z,59.24
2023-04-13T11:53:53.409Z,61.00
2023-04-13T11:54:53.597Z,60.84
2023-04-13T11:55:53.981Z,60.70
2023-04-13T11:56:54.089Z,60.76
2023-04-13T11:57:53.637Z,60.35
2023-04-13T11:58:53.695Z,61.03
2023-04-13T11:59:53.754Z,59.50
2023-04-13T12:00:53.818Z,59.52
2023-04-13T12:02:02.022Z,60.11
2023-04-13T12:04:07.927Z,60.28
2023-04-13T12:04:54.159Z,60.25
2023-04-13T12:05:54.313Z,59.91
2023-04-13T12:06:54.349Z,61.06
2023-04-13T12:07:54.853Z,60.86
2023-04-13T12:08:57.720Z,60.23
2023-04-13T12:09:56.671Z,60.49
2023-04-13T12:11:15.460Z,60.53
2023-04-13T12:12:16.255Z,60.64
2023-04-13T12:12:56.914Z,60.24
2023-04-13T12:15:04.739Z,59.88
2023-04-13T12:17:04.044Z,60.32
2023-04-13T12:17:57.976Z,60.87
2023-04-13T12:18:55.268Z,61.61
2023-04-13T12:19:56.942Z,62.01
2023-04-13T12:20:54.687Z,61.57
2023-04-13T12:21:55.851Z,60.64
2023-04-13T12:23:03.047Z,59.46
2023-04-13T12:23:55.158Z,61.13
2023-04-13T12:24:56.645Z,61.17
2023-04-13T12:25:55.155Z,61.30
2023-04-13T12:27:16.339Z,61.53
2023-04-13T12:27:55.000Z,62.07
2023-04-13T12:28:55.099Z,61.58
2023-04-13T12:29:55.232Z,60.87
2023-04-13T12:30:55.126Z,60.51
2023-04-13T12:31:55.092Z,60.30
2023-04-13T12:32:55.146Z,60.08
2023-04-13T12:33:55.140Z,59.55
2023-04-13T12:34:55.075Z,58.96
2023-04-13T12:35:55.102Z,58.79
2023-04-13T12:36:55.094Z,60.31
2023-04-13T12:37:56.113Z,59.54
2023-04-13T12:38:55.597Z,59.04
2023-04-13T12:39:55.203Z,59.05
2023-04-13T12:40:55.161Z,59.56
2023-04-13T12:41:55.189Z,59.03
2023-04-13T12:42:55.201Z,59.25
2023-04-13T12:43:55.232Z,59.56
2023-04-13T12:44:55.279Z,59.62
2023-04-13T12:45:55.264Z,59.73
2023-04-13T12:46:55.396Z,59.36
2023-04-13T12:47:55.351Z,59.37
2023-04-13T12:48:55.598Z,59.17
2023-04-13T12:49:55.456Z,59.01
2023-04-13T12:50:55.501Z,58.78
2023-04-13T12:51:55.561Z,58.92
2023-04-13T12:52:55.987Z,59.56
2023-04-13T12:53:55.630Z,58.88
2023-04-13T12:54:55.659Z,58.44
2023-04-13T12:55:55.711Z,57.73
2023-04-13T12:56:56.280Z,57.35
2023-04-13T12:57:55.846Z,57.34
2023-04-13T12:58:56.460Z,57.44